Time;durP1;ratioP1;P1;durP2;ratioP2;P2;SDS_P1;SDS_P2;PMS_P1;PMS_P2;Temp;Humidity;BMP_temperature;BMP_pressure;BME280_temperature;BME280_humidity;BME280_pressure;Samples;Min_cycle;Max_cycle;Signal;HPM_P1;HPM_P2
2021/06/13 16:28:53;;;;;;;2.33;1.25;;;;;;;;;;1908739;56;20413;-42
2021/06/13 16:31:19;;;;;;;12.98;1.60;;;;;;;;;;1905246;67;20092;-42
2021/06/13 16:33:45;;;;;;;5.38;1.10;;;;;;;;;;1904731;67;20077;-42
2021/06/13 16:36:10;;;;;;;3.97;0.80;;;;;;;;;;1905546;67;20454;-42
2021/06/13 16:38:36;;;;;;;4.95;1.17;;;;;;;;;;1905035;67;20084;-42
2021/06/13 16:41:01;;;;;;;3.95;1.30;;;;;;;;;;1905925;67;20092;-42
2021/06/13 16:43:27;;;;;;;4.05;1.42;;;;;;;;;;1906215;51;20084;-42
2021/06/13 16:45:52;;;;;;;4.80;1.10;;;;;;;;;;1904916;67;20103;-41
2021/06/13 16:48:18;;;;;;;7.53;1.38;;;;;;;;;;1904024;67;20084;-42
2021/06/13 16:50:44;;;;;;;3.00;1.10;;;;;;;;;;1904687;67;20373;-42
2021/06/13 16:53:10;;;;;;;7.85;1.02;;;;;;;;;;1904703;67;20186;-42
2021/06/13 16:55:35;;;;;;;3.15;1.27;;;;;;;;;;1906325;51;20092;-42
2021/06/13 16:58:02;;;;;;;3.75;0.98;;;;;;;;;;1904783;67;20077;-42
2021/06/13 17:00:28;;;;;;;2.90;1.00;;;;;;;;;;1905059;67;20412;-42
2021/06/13 17:02:54;;;;;;;2.60;1.00;;;;;;;;;;1904371;67;20102;-42
2021/06/13 17:05:19;;;;;;;3.83;0.93;;;;;;;;;;1904176;67;20396;-42
2021/06/13 17:07:45;;;;;;;3.95;1.02;;;;;;;;;;1905051;67;20084;-44
2021/06/13 17:10:11;;;;;;;2.47;1.10;;;;;;;;;;1905573;67;20099;-42
2021/06/13 17:12:37;;;;;;;4.18;1.15;;;;;;;;;;1905421;67;20146;-41
2021/06/13 17:15:04;;;;;;;3.47;0.90;;;;;;;;;;1904200;67;20458;-41
2021/06/13 17:17:30;;;;;;;3.45;0.90;;;;;;;;;;1903503;67;20084;-42
2021/06/13 17:20:02;;;;;;;2.30;0.98;;;;;;;;;;1904730;67;20558;-42
2021/06/13 17:22:29;;;;;;;3.03;1.15;;;;;;;;;;1905795;67;20378;-41
2021/06/13 17:24:59;;;;;;;4.85;0.93;;;;;;;;;;1904097;52;20556;-40
2021/06/13 17:27:25;;;;;;;1.77;0.88;;;;;;;;;;1901428;67;20152;-42
2021/06/13 17:29:50;;;;;;;2.28;1.02;;;;;;;;;;1901457;67;20181;-41
2021/06/13 17:32:16;;;;;;;3.15;0.98;;;;;;;;;;1900944;67;20089;-42
2021/06/13 17:34:41;;;;;;;4.40;0.93;;;;;;;;;;1900600;67;20157;-44
2021/06/13 17:37:23;;;;;;;1.48;0.80;;;;;;;;;;1900500;67;20116;-54
2021/06/13 17:39:51;;;;;;;3.15;1.02;;;;;;;;;;1899158;67;20159;-45
2021/06/13 17:42:17;;;;;;;2.10;0.93;;;;;;;;;;1900316;67;20107;-57
2021/06/13 17:44:43;;;;;;;3.08;1.10;;;;;;;;;;1899793;67;20093;-48
2021/06/13 17:47:12;;;;;;;3.10;0.88;;;;;;;;;;1898880;67;20192;-48
2021/06/13 17:49:38;;;;;;;5.50;1.17;;;;;;;;;;1898851;67;20089;-59
2021/06/13 17:52:04;;;;;;;2.70;0.82;;;;;;;;;;1898183;67;20107;-58
2021/06/13 17:54:30;;;;;;;8.13;1.15;;;;;;;;;;1899167;52;20151;-58
2021/06/13 17:56:55;;;;;;;4.43;1.20;;;;;;;;;;1898594;67;20144;-53
2021/06/13 17:59:21;;;;;;;3.90;1.05;;;;;;;;;;1901272;67;20143;-54
2021/06/13 18:01:47;;;;;;;5.22;0.90;;;;;;;;;;1900548;67;20086;-52
2021/06/13 18:04:14;;;;;;;2.35;0.88;;;;;;;;;;1900594;75;20103;-62
2021/06/13 18:06:39;;;;;;;4.30;1.00;;;;;;;;;;1900293;56;20136;-56
2021/06/13 18:09:05;;;;;;;2.30;0.93;;;;;;;;;;1900388;67;20089;-63
2021/06/13 18:11:31;;;;;;;1.42;0.60;;;;;;;;;;1900822;67;20193;-63
2021/06/13 18:13:56;;;;;;;1.75;0.85;;;;;;;;;;1901053;67;20196;-58
2021/06/13 18:16:22;;;;;;;1.88;0.57;;;;;;;;;;1897237;67;20094;-51
2021/06/13 18:18:47;;;;;;;2.38;1.02;;;;;;;;;;1900361;67;20101;-59
2021/06/13 18:21:13;;;;;;;5.43;1.08;;;;;;;;;;1899395;67;20140;-51
2021/06/13 18:23:40;;;;;;;4.13;0.82;;;;;;;;;;1900375;67;20426;-50
2021/06/13 18:26:06;;;;;;;5.55;1.08;;;;;;;;;;1901289;67;20135;-53
2021/06/13 18:28:33;;;;;;;2.22;0.90;;;;;;;;;;1897981;67;20115;-51
2021/06/13 18:30:58;;;;;;;6.30;0.80;;;;;;;;;;1897322;67;20144;-47
2021/06/13 18:33:24;;;;;;;3.00;0.90;;;;;;;;;;1898027;75;20537;-47
2021/06/13 18:35:50;;;;;;;2.33;0.85;;;;;;;;;;1901378;75;20152;-51
2021/06/13 18:38:17;;;;;;;4.97;0.98;;;;;;;;;;1900411;67;20092;-55
2021/06/13 18:40:43;;;;;;;4.13;1.05;;;;;;;;;;1901240;67;20097;-49
2021/06/13 18:43:11;;;;;;;6.15;1.77;;;;;;;;;;1900554;67;20154;-49
2021/06/13 18:45:36;;;;;;;6.40;1.10;;;;;;;;;;1899894;67;20085;-49
2021/06/13 18:51:26;;;;;;;12.00;2.72;;;;;;;;;;1911623;66;20392;-66
2021/06/13 18:53:51;;;;;;;7.47;2.58;;;;;;;;;;1913374;67;20083;-67
2021/06/13 18:56:19;;;;;;;7.82;2.78;;;;;;;;;;1911663;67;20103;-66
2021/06/13 18:58:46;;;;;;;8.93;2.70;;;;;;;;;;1910958;75;20094;-66
2021/06/13 19:01:12;;;;;;;8.18;3.55;;;;;;;;;;1911419;75;20080;-65
2021/06/13 19:03:38;;;;;;;8.50;2.97;;;;;;;;;;1910647;75;20149;-66
2021/06/13 19:06:04;;;;;;;14.95;3.42;;;;;;;;;;1910787;67;20087;-68
2021/06/13 19:08:29;;;;;;;12.85;3.53;;;;;;;;;;1911093;75;20534;-65
2021/06/13 19:10:55;;;;;;;12.93;3.67;;;;;;;;;;1911528;75;20160;-65
2021/06/13 19:13:20;;;;;;;13.23;3.50;;;;;;;;;;1911420;75;20083;-65
2021/06/13 19:15:47;;;;;;;11.52;2.97;;;;;;;;;;1910847;75;20582;-68
2021/06/13 19:18:13;;;;;;;9.73;3.20;;;;;;;;;;1909100;75;20520;-65
2021/06/13 19:20:40;;;;;;;12.95;3.50;;;;;;;;;;1908601;67;20094;-66
2021/06/13 19:23:06;;;;;;;8.57;3.40;;;;;;;;;;1908668;67;20145;-66
2021/06/13 19:25:33;;;;;;;12.32;3.10;;;;;;;;;;1909100;67;20567;-65
2021/06/13 19:28:00;;;;;;;8.60;3.50;;;;;;;;;;1909175;75;20104;-66
2021/06/13 19:30:27;;;;;;;9.75;3.85;;;;;;;;;;1907655;67;20388;-66
2021/06/13 19:32:54;;;;;;;4.55;2.75;;;;;;;;;;1909348;75;20088;-65
2021/06/13 19:35:21;;;;;;;7.20;2.92;;;;;;;;;;1909301;75;20084;-67
2021/06/13 19:37:47;;;;;;;6.10;3.03;;;;;;;;;;1909306;67;20190;-65
2021/06/13 19:40:14;;;;;;;7.00;3.00;;;;;;;;;;1909310;75;20166;-67
2021/06/13 19:42:41;;;;;;;8.02;3.20;;;;;;;;;;1909301;75;20146;-65
2021/06/13 19:45:07;;;;;;;7.30;3.22;;;;;;;;;;1908668;67;20098;-65
2021/06/13 19:47:33;;;;;;;5.35;2.95;;;;;;;;;;1908853;75;20213;-68
2021/06/13 19:50:00;;;;;;;5.93;3.30;;;;;;;;;;1910203;67;20258;-66
2021/06/13 19:52:26;;;;;;;7.68;3.55;;;;;;;;;;1908808;67;20117;-65
2021/06/13 19:54:51;;;;;;;9.05;3.80;;;;;;;;;;1908665;67;20121;-67
2021/06/13 19:57:16;;;;;;;5.53;3.13;;;;;;;;;;1908512;67;20555;-65
2021/06/13 19:59:42;;;;;;;6.53;3.45;;;;;;;;;;1908148;67;20088;-67
2021/06/13 20:02:08;;;;;;;7.22;3.50;;;;;;;;;;1907355;67;20107;-65
2021/06/13 20:04:35;;;;;;;11.85;4.40;;;;;;;;;;1905999;67;20098;-65
2021/06/13 20:07:04;;;;;;;8.60;4.30;;;;;;;;;;1908334;67;20088;-65
2021/06/13 20:09:30;;;;;;;9.52;4.15;;;;;;;;;;1909335;67;20092;-65
2021/06/13 20:11:55;;;;;;;8.18;3.53;;;;;;;;;;1908280;67;20096;-66
2021/06/13 20:14:21;;;;;;;7.32;3.63;;;;;;;;;;1906515;67;20634;-66
2021/06/13 20:16:47;;;;;;;7.63;3.58;;;;;;;;;;1906078;75;20513;-65
2021/06/13 20:19:13;;;;;;;10.98;3.45;;;;;;;;;;1906151;75;20088;-66
2021/06/13 20:21:39;;;;;;;7.93;4.03;;;;;;;;;;1907096;75;20092;-65
2021/06/13 20:24:05;;;;;;;14.48;3.90;;;;;;;;;;1906019;67;20527;-66
2021/06/13 20:26:30;;;;;;;9.63;3.55;;;;;;;;;;1907046;75;20420;-65
2021/06/13 20:28:55;;;;;;;8.32;3.72;;;;;;;;;;1907109;75;20084;-65
2021/06/13 20:31:21;;;;;;;8.77;3.70;;;;;;;;;;1905991;67;20200;-66
2021/06/13 20:33:47;;;;;;;9.90;3.88;;;;;;;;;;1906113;67;20629;-65
2021/06/13 20:36:12;;;;;;;6.55;3.90;;;;;;;;;;1907134;75;20087;-66
2021/06/13 20:38:38;;;;;;;8.35;3.97;;;;;;;;;;1906845;67;20084;-66
2021/06/13 20:41:05;;;;;;;9.40;4.20;;;;;;;;;;1907078;75;20092;-65
2021/06/13 20:43:31;;;;;;;6.53;3.50;;;;;;;;;;1906476;67;20095;-66
2021/06/13 20:45:58;;;;;;;10.38;4.35;;;;;;;;;;1907041;67;20436;-66
2021/06/13 20:48:29;;;;;;;8.63;4.32;;;;;;;;;;1907038;67;20520;-65
2021/06/13 20:50:55;;;;;;;10.48;4.68;;;;;;;;;;1907205;67;20080;-65
2021/06/13 20:53:22;;;;;;;10.63;4.57;;;;;;;;;;1906519;67;20103;-66
2021/06/13 20:55:49;;;;;;;8.45;4.70;;;;;;;;;;1905299;67;20115;-65
2021/06/13 20:58:16;;;;;;;9.85;4.65;;;;;;;;;;1908623;67;20092;-65
2021/06/13 21:00:41;;;;;;;8.38;4.63;;;;;;;;;;1905542;67;20092;-65
2021/06/13 21:03:07;;;;;;;13.05;4.88;;;;;;;;;;1905720;67;20126;-58
2021/06/13 21:05:33;;;;;;;9.32;4.50;;;;;;;;;;1906955;67;20080;-58
2021/06/13 21:07:58;;;;;;;8.13;4.40;;;;;;;;;;1906526;67;20136;-58
2021/06/13 21:10:25;;;;;;;8.15;4.65;;;;;;;;;;1906045;67;20089;-58
2021/06/13 21:12:57;;;;;;;8.52;4.57;;;;;;;;;;1905635;67;20145;-59
2021/06/13 21:15:25;;;;;;;10.45;4.95;;;;;;;;;;1905318;67;20527;-58
2021/06/13 21:17:51;;;;;;;11.63;4.75;;;;;;;;;;1905673;67;20104;-58
2021/06/13 21:20:18;;;;;;;9.63;4.80;;;;;;;;;;1905639;67;20087;-58
2021/06/13 21:22:44;;;;;;;10.77;5.10;;;;;;;;;;1904733;67;20165;-58
2021/06/13 21:25:11;;;;;;;10.80;5.00;;;;;;;;;;1903794;56;20416;-58
2021/06/13 21:27:36;;;;;;;12.98;4.85;;;;;;;;;;1904691;56;20144;-58
2021/06/13 21:30:04;;;;;;;9.60;4.70;;;;;;;;;;1908338;67;20640;-59
2021/06/13 21:32:29;;;;;;;10.55;5.25;;;;;;;;;;1908536;67;20462;-65
2021/06/13 21:34:55;;;;;;;9.05;4.82;;;;;;;;;;1907358;67;20096;-65
2021/06/13 21:37:21;;;;;;;7.95;4.40;;;;;;;;;;1908198;67;20128;-66
2021/06/13 21:39:46;;;;;;;10.55;4.90;;;;;;;;;;1908065;67;20423;-65
2021/06/13 21:42:11;;;;;;;14.82;5.15;;;;;;;;;;1907996;67;20408;-65
2021/06/13 21:44:37;;;;;;;8.25;4.25;;;;;;;;;;1907077;67;20098;-65
2021/06/13 21:47:03;;;;;;;8.68;4.60;;;;;;;;;;1908545;67;20099;-64
2021/06/13 21:49:28;;;;;;;10.32;4.35;;;;;;;;;;1909274;67;20095;-64
2021/06/13 21:51:54;;;;;;;11.32;4.45;;;;;;;;;;1909690;67;20100;-65
2021/06/13 21:54:20;;;;;;;8.32;4.10;;;;;;;;;;1908364;67;20546;-65
2021/06/13 21:56:46;;;;;;;14.18;4.43;;;;;;;;;;1911865;59;20537;-66
2021/06/13 21:59:11;;;;;;;10.40;3.92;;;;;;;;;;1908219;67;20314;-65
2021/06/13 22:01:37;;;;;;;9.15;4.38;;;;;;;;;;1908269;67;20079;-66
2021/06/13 22:04:03;;;;;;;8.65;4.05;;;;;;;;;;1907312;67;20127;-66
2021/06/13 22:06:28;;;;;;;7.18;3.47;;;;;;;;;;1908449;67;20127;-66
2021/06/13 22:08:54;;;;;;;7.00;3.58;;;;;;;;;;1908027;67;20450;-65
2021/06/13 22:11:20;;;;;;;8.30;3.50;;;;;;;;;;1907269;67;20088;-66
2021/06/13 22:13:49;;;;;;;7.85;3.33;;;;;;;;;;1907529;67;20099;-65
2021/06/13 22:16:15;;;;;;;10.30;3.13;;;;;;;;;;1908602;67;20084;-65
2021/06/13 22:18:40;;;;;;;10.40;3.05;;;;;;;;;;1907208;67;20545;-65
2021/06/13 22:21:07;;;;;;;8.95;3.47;;;;;;;;;;1908223;67;20098;-66
2021/06/13 22:23:33;;;;;;;4.93;3.13;;;;;;;;;;1907833;67;20091;-66
2021/06/13 22:25:58;;;;;;;10.02;2.78;;;;;;;;;;1907607;67;20088;-66
2021/06/13 22:28:24;;;;;;;7.57;3.25;;;;;;;;;;1908492;67;20137;-66
2021/06/13 22:30:52;;;;;;;5.82;3.08;;;;;;;;;;1908819;60;20098;-67
2021/06/13 22:33:18;;;;;;;7.55;3.53;;;;;;;;;;1908342;67;20095;-66
2021/06/13 22:35:45;;;;;;;6.03;3.65;;;;;;;;;;1907577;67;20086;-66
2021/06/13 22:38:10;;;;;;;6.28;2.50;;;;;;;;;;1908135;67;20548;-67
2021/06/13 22:40:36;;;;;;;6.45;3.15;;;;;;;;;;1907475;67;20088;-66
2021/06/13 22:43:03;;;;;;;3.40;2.47;;;;;;;;;;1907927;67;20092;-66
2021/06/13 22:45:29;;;;;;;6.95;2.40;;;;;;;;;;1908701;67;20080;-65
2021/06/13 22:47:55;;;;;;;3.25;2.50;;;;;;;;;;1906960;67;20095;-65
2021/06/13 22:50:22;;;;;;;3.55;2.55;;;;;;;;;;1907291;67;20343;-64
2021/06/13 22:52:48;;;;;;;4.47;2.55;;;;;;;;;;1908921;75;20088;-65
2021/06/13 22:55:16;;;;;;;6.63;3.90;;;;;;;;;;1908890;67;20544;-65
2021/06/13 22:57:44;;;;;;;4.60;2.25;;;;;;;;;;1907661;67;20080;-65
2021/06/13 23:00:13;;;;;;;4.45;2.80;;;;;;;;;;1907645;67;20079;-65
2021/06/13 23:02:39;;;;;;;4.78;2.80;;;;;;;;;;1908020;67;20135;-66
2021/06/13 23:05:06;;;;;;;6.80;2.83;;;;;;;;;;1908342;67;20429;-65
2021/06/13 23:07:31;;;;;;;6.05;2.92;;;;;;;;;;1909250;67;20141;-65
2021/06/13 23:09:57;;;;;;;3.67;2.85;;;;;;;;;;1907995;67;20127;-65
2021/06/13 23:12:23;;;;;;;10.45;2.78;;;;;;;;;;1907590;67;20098;-65
2021/06/13 23:14:49;;;;;;;6.70;2.80;;;;;;;;;;1907336;67;20083;-65
2021/06/13 23:17:15;;;;;;;7.10;2.80;;;;;;;;;;1907340;67;20438;-66
2021/06/13 23:19:41;;;;;;;3.20;2.42;;;;;;;;;;1908015;67;20083;-64
2021/06/13 23:22:06;;;;;;;9.02;2.42;;;;;;;;;;1907600;67;20098;-65
2021/06/13 23:24:33;;;;;;;3.83;2.28;;;;;;;;;;1907747;67;20530;-65
2021/06/13 23:26:59;;;;;;;6.75;2.65;;;;;;;;;;1907583;67;20513;-65
2021/06/13 23:29:24;;;;;;;4.60;2.28;;;;;;;;;;1907647;67;20080;-65
2021/06/13 23:31:50;;;;;;;2.85;2.20;;;;;;;;;;1908417;67;20426;-65
2021/06/13 23:34:16;;;;;;;4.82;2.58;;;;;;;;;;1907900;67;20499;-66
2021/06/13 23:36:41;;;;;;;5.13;2.40;;;;;;;;;;1907788;67;20084;-64
2021/06/13 23:39:07;;;;;;;7.57;2.60;;;;;;;;;;1910645;59;20095;-65
2021/06/13 23:41:33;;;;;;;6.68;3.00;;;;;;;;;;1908301;67;20495;-65
2021/06/13 23:43:58;;;;;;;6.20;2.90;;;;;;;;;;1908153;67;20088;-64
2021/06/13 23:46:24;;;;;;;3.55;2.28;;;;;;;;;;1908573;67;20088;-64
2021/06/13 23:48:49;;;;;;;4.13;2.20;;;;;;;;;;1907234;67;20084;-64
2021/06/13 23:51:15;;;;;;;5.65;2.72;;;;;;;;;;1909217;67;20159;-63
2021/06/13 23:53:40;;;;;;;5.82;2.60;;;;;;;;;;1906972;67;20092;-65
2021/06/13 23:56:06;;;;;;;5.00;2.88;;;;;;;;;;1908074;67;20088;-65
2021/06/13 23:58:31;;;;;;;4.85;2.35;;;;;;;;;;1907504;67;20145;-64
